Hlavní strana
METAR-TAF:

METAR-TAF

Letiště :

Arvidsjaur, Švédsko

zeměpisná šířka: 65-35-25N, zeměpisná délka: 019-16-55E, výška: 379 m

Aktuální stav počasí

Zpráva byla vytvořena před 21 minutami, v 04:20 UTC
Bezvětří
Teplota -6°C
Vlhkost vzduchu 100%
Tlak 1021 hPa
Viditelnost: 7000 m
kouřmo

METAR: ESNX 180420Z AUTO 00000KT 7000 BR OVC019/// M06/M06 Q1021

Čas: 05:41 (04:41 UTC)

Předpověď počasí

Zpráva byla vytvořena před 2 hodinami a 11 minutami, v 02:30 UTC
Předpověď platná od 18 v 03 UTC do 18 v 10 UTC
vítr z různých směrů 2 kt
Viditelnost 10 km a více
Skoro jasno ve výšce 500 ft
Oblačno až skoro zataženo ve výšce 2000 ft
Dočasný
od 18 v 03 UTC do 18 v 06 UTC
Viditelnost: 4000 m
Oblačno až skoro zataženo ve výšce 400 ft
kouřmo

TAF: ESNX 180230Z 1803/1810 VRB02KT 9999 FEW005 BKN020 TEMPO 1803/1806 4000 BR BKN004

Stav a předpovědi počasí z více než 4 000 letišť (zprávy METAR a TAF).

Červené a žluté tečky na mapě představují dostupné meteorologické stanice.

Když kurzor umístíte na tečku, zobrazí se název stanice.

Pak kliknutím zobrazíte stav a předpověď počasí.

Chcete-li změnit mapu, kliknutím na zelené tlačítko se znaménkem +mapu přiblížíte, kliknutím na zelené tlačítko se znaménkem – mapu oddálíte a kliknutím na zelené šipky přejdete na sousední mapy.


METAR-TAF: